Flight Track Log - Related Links

Times and Time Zones

All times are in EDT time to prevent confusion due to time zone crossing. See the RPA3436 flight status page for this flight to view local times or setup timezone preferences in your user account.


Time Position Orientation Groundspeed Altitude Reporting Facility
EDT Latitude Longitude Course Direction KTS MPH feet Rate Location/Type
Thu 07:53:03 AM 32.8786 -79.9961 13° North 243 280 3,100  Level Jacksonville Center
Thu 07:54:00 AM 33.2621 -79.9243 North  Level FlightAware Approximate
Thu 07:54:03 AM 32.9492 -79.9767 13° North 285 328 5,500  Level Jacksonville Center
Thu 07:55:00 AM 33.3549 -79.8892 23° Northeast  Level FlightAware Approximate
Thu 07:55:03 AM 33.0281 -79.9617 North 291 335 8,200  Level Jacksonville Center
Thu 07:56:00 AM 33.4507 -79.8665 13° North  Level FlightAware Approximate
Thu 07:56:03 AM 33.1114 -79.9464 North 291 335 10,700  Level Jacksonville Center
Thu 07:57:00 AM 33.5460 -79.8393 13° North  Level FlightAware Approximate
Thu 07:57:03 AM 33.2006 -79.9311 North 303 349 12,700  Level Jacksonville Center
Thu 07:58:00 AM 33.6413 -79.8120 13° North  Level FlightAware Approximate
Thu 07:58:03 AM 33.2942 -79.9156 North 319 367 15,100  Level Jacksonville Center
Thu 07:59:03 AM 33.3875 -79.8950 10° North 331 381 17,200 1,950 Climbing Jacksonville Center
Thu 08:00:03 AM 33.4831 -79.8719 11° North 336 387 19,000 1,700 Climbing Jacksonville Center
Thu 08:01:03 AM 33.5806 -79.8436 14° North 347 399 20,600 1,450 Climbing Jacksonville Center
Thu 08:02:03 AM 33.6842 -79.8150 13° North 360 414 21,900 1,350 Climbing Jacksonville Center
Thu 08:03:03 AM 33.7897 -79.7864 13° North 373 429 23,300 1,350 Climbing Jacksonville Center
Thu 08:04:03 AM 33.8886 -79.7303 25° Northeast 383 441 24,600 1,200 Climbing Jacksonville Center
Thu 08:05:03 AM 33.9694 -79.6322 45° Northeast 383 441 25,700 1,247 Climbing Jacksonville Center
Thu 08:07:01 AM 34.1311 -79.4278 46° Northeast 419 482 28,300 1,416 Climbing Washington Center
Thu 08:08:01 AM 34.2158 -79.3236 45° Northeast 426 490 29,900 1,350 Climbing Washington Center
Thu 08:09:01 AM 34.3019 -79.2397 39° Northeast 439 505 31,000 545 Climbing Washington Center
Thu 08:10:02 AM 34.4103 -79.1767 26° Northeast 433 498 31,000  Level Washington Center
Thu 08:11:00 AM 34.5161 -79.1208 23° Northeast 422 486 31,000  Level Washington Center
Thu 08:12:02 AM 34.6244 -79.0572 26° Northeast 417 480 31,000  Level Washington Center
Thu 08:13:02 AM 34.7306 -78.9961 25° Northeast 417 480 31,000  Level Washington Center
Thu 08:14:02 AM 34.8367 -78.9347 25° Northeast 412 474 31,000  Level Washington Center
Thu 08:15:01 AM 34.9447 -78.8733 25° Northeast 417 480 31,000  Level Washington Center
Thu 08:16:01 AM 35.0528 -78.8092 26° Northeast 417 480 31,000  Level Washington Center
Thu 08:17:02 AM 35.1589 -78.7447 26° Northeast 417 480 31,000  Level Washington Center
Thu 08:18:03 AM 35.2669 -78.6828 25° Northeast 417 480 31,000 -350 Level Washington Center
Thu 08:19:02 AM 35.3897 -78.6111 25° Northeast 430 495 30,300 -908 Descending Washington Center
Thu 08:20:02 AM 35.4850 -78.5536 26° Northeast 430 495 29,200 -1,150 Descending Washington Center
Thu 08:21:02 AM 35.6058 -78.4814 26° Northeast 431 496 28,000 -1,119 Descending Washington Center
Thu 08:22:00 AM 35.7181 -78.4164 25° Northeast 431 496 27,000 -504 Descending Washington Center
Thu 08:23:01 AM 35.8258 -78.3511 26° Northeast 426 490 27,000  Level Washington Center
Thu 08:24:02 AM 35.9317 -78.2881 26° Northeast 426 490 27,000  Level Washington Center
Thu 08:25:03 AM 36.0394 -78.2225 26° Northeast 426 490 27,000  Level Washington Center
Thu 08:26:01 AM 36.1472 -78.1592 25° Northeast 426 490 27,000  Level Washington Center
Thu 08:27:02 AM 36.2553 -78.0906 27° Northeast 426 490 27,000  Level Washington Center
Thu 08:28:02 AM 36.3608 -78.0294 25° Northeast 426 490 27,000  Level Washington Center
Thu 08:29:03 AM 36.4536 -77.9728 26° Northeast 426 490 27,000  Level Washington Center
Thu 08:30:03 AM 36.5614 -77.9064 26° Northeast 426 490 27,000 -462 Level Washington Center
Thu 08:31:00 AM 36.6692 -77.8422 26° Northeast 426 490 26,100 -1,008 Descending Washington Center
Thu 08:32:02 AM 36.7744 -77.7831 24° Northeast 421 484 25,000 -1,082 Descending Washington Center
Thu 08:33:02 AM 36.8825 -77.8147 347° North 392 451 23,900 -1,041 Descending Washington Center
Thu 08:34:03 AM 36.9833 -77.8800 333° Northwest 385 443 22,900 -950 Descending Washington Center
Thu 08:35:02 AM 37.0908 -77.8286 21° North 366 421 22,000 -454 Descending Washington Center
Thu 08:36:02 AM 37.1717 -77.7317 44° Northeast 366 421 22,000  Level Washington Center
Thu 08:37:00 AM 37.2486 -77.6322 46° Northeast 384 442 22,000  Level Washington Center
Thu 08:38:01 AM 37.3294 -77.5350 44° Northeast 390 449 22,000  Level Washington Center
Thu 08:39:02 AM 37.4103 -77.4353 44° Northeast 396 456 22,000  Level Washington Center
Thu 08:40:03 AM 37.4761 -77.3556 44° Northeast 401 461 22,000 -49 Level Washington Center
Thu 08:41:04 AM 37.5875 -77.3006 21° North 389 448 21,900 -1,068 Descending Washington Center
Thu 08:42:01 AM 37.6942 -77.2794 North 390 449 19,900 -2,067 Descending Washington Center
Thu 08:43:03 AM 37.7967 -77.2581 North 379 436 17,800 -2,017 Descending Washington Center
Thu 08:44:00 AM 37.9014 -77.2367 North 372 428 15,900 -1,932 Descending Washington Center
Thu 08:45:01 AM 37.9994 -77.2178 North 367 422 14,000 -1,884 Descending Washington Center
Thu 08:46:01 AM 38.0936 -77.2011 North 360 414 12,100 -2,000 Descending Washington Center
Thu 08:47:01 AM 38.1983 -77.1744 11° North 349 402 10,000 -1,091 Descending Washington Center
Thu 08:48:02 AM 38.2819 -77.1575 North 328 377 9,900 -738 Descending Washington Center
Thu 08:49:03 AM 38.3553 -77.1219 21° North 308 354 8,500 -1,450 Descending Washington Center
Thu 08:50:02 AM 38.4269 -77.0625 33° Northeast 301 346 7,000 -1,109 Descending Washington Center
Thu 08:51:02 AM 38.4983 -77.0136 28° Northeast 295 339 6,300 -750 Descending Washington Center
Thu 08:52:02 AM 38.5672 -77.0150 359° North 254 292 5,500 -655 Descending Washington Center
Thu 08:53:01 AM 38.6217 -76.9947 16° North 232 267 5,000 -535 Descending Washington Center
Thu 08:53:43 AM 38.6667 -76.9833 11° North 198 228 4,600 -571 Descending Potomac TRACON

Login

Don't have an account? Register now (free) for customized features, flight alerts, and more!